createdAt,value
2018-12-18T00:00:53.853Z,0.00
2018-12-18T00:01:53.769Z,0.00
2018-12-18T00:02:53.718Z,0.00
2018-12-18T00:03:53.663Z,0.00
2018-12-18T00:04:53.638Z,0.00
2018-12-18T00:05:53.557Z,0.00
2018-12-18T00:06:53.502Z,0.00
2018-12-18T00:07:53.447Z,0.00
2018-12-18T00:08:53.393Z,0.00
2018-12-18T00:09:53.366Z,0.00
2018-12-18T00:11:01.035Z,0.00
2018-12-18T00:11:59.169Z,0.00
2018-12-18T00:12:53.176Z,0.00
2018-12-18T00:13:53.126Z,0.00
2018-12-18T00:14:53.090Z,0.00
2018-12-18T00:15:53.007Z,0.00
2018-12-18T00:16:52.960Z,0.00
2018-12-18T00:17:52.899Z,0.00
2018-12-18T00:18:52.843Z,0.00
2018-12-18T00:19:52.813Z,0.00
2018-12-18T00:20:52.735Z,0.00
2018-12-18T00:21:52.679Z,0.00
2018-12-18T00:22:52.630Z,0.00
2018-12-18T00:23:52.570Z,0.00
2018-12-18T00:24:52.559Z,0.00
2018-12-18T00:25:52.520Z,0.00
2018-12-18T00:26:52.404Z,0.00
2018-12-18T00:27:52.349Z,0.00
2018-12-18T00:28:52.303Z,0.00
2018-12-18T00:29:52.242Z,0.00
2018-12-18T00:30:52.217Z,0.00
2018-12-18T00:31:52.140Z,0.00
2018-12-18T00:32:52.076Z,0.00
2018-12-18T00:33:52.021Z,0.00
2018-12-18T00:34:51.970Z,0.00
2018-12-18T00:35:51.943Z,0.00
2018-12-18T00:36:51.860Z,0.00
2018-12-18T00:37:51.803Z,0.00
2018-12-18T00:38:51.752Z,0.00
2018-12-18T00:39:51.699Z,0.00
2018-12-18T00:40:51.671Z,0.00
2018-12-18T00:41:51.587Z,0.00
2018-12-18T00:42:51.533Z,0.00
2018-12-18T00:43:51.478Z,0.00
2018-12-18T00:44:51.423Z,0.00
2018-12-18T00:45:51.391Z,0.00
2018-12-18T00:46:51.315Z,0.00
2018-12-18T00:47:51.256Z,0.00
2018-12-18T00:48:51.289Z,0.00
2018-12-18T00:49:51.150Z,0.00
2018-12-18T00:50:51.120Z,0.00
2018-12-18T00:51:51.039Z,0.00
2018-12-18T00:52:50.991Z,0.00
2018-12-18T00:53:50.936Z,0.00
2018-12-18T00:54:50.877Z,0.00
2018-12-18T00:55:50.845Z,0.00
2018-12-18T00:56:50.772Z,0.00
2018-12-18T00:57:50.715Z,0.00
2018-12-18T00:58:50.660Z,0.00
2018-12-18T00:59:50.604Z,0.00
2018-12-18T01:00:50.574Z,0.00
2018-12-18T01:01:50.497Z,0.00
2018-12-18T01:02:50.441Z,0.00
2018-12-18T01:03:52.929Z,0.00
2018-12-18T01:04:50.330Z,0.00
2018-12-18T01:05:50.279Z,0.00
2018-12-18T01:06:50.244Z,0.00
2018-12-18T01:07:53.325Z,0.00
2018-12-18T01:08:50.119Z,0.00
2018-12-18T01:09:50.061Z,0.00
2018-12-18T01:10:50.009Z,0.00
2018-12-18T01:11:49.976Z,0.00
2018-12-18T01:12:49.896Z,0.00
2018-12-18T01:13:49.844Z,0.00
2018-12-18T01:14:49.788Z,0.00
2018-12-18T01:15:49.737Z,0.00
2018-12-18T01:16:49.710Z,0.00
2018-12-18T01:17:49.628Z,0.00
2018-12-18T01:18:49.571Z,0.00
2018-12-18T01:19:49.517Z,0.00
2018-12-18T01:20:49.467Z,0.00
2018-12-18T01:21:49.434Z,0.00
2018-12-18T01:22:49.354Z,0.00
2018-12-18T01:23:49.301Z,0.00
2018-12-18T01:24:49.247Z,0.00
2018-12-18T01:25:49.191Z,0.00
2018-12-18T01:26:49.162Z,0.00
2018-12-18T01:27:49.089Z,0.00
2018-12-18T01:28:49.025Z,0.00
2018-12-18T01:29:48.981Z,0.00
2018-12-18T01:30:48.919Z,0.00
2018-12-18T01:31:48.887Z,0.00
2018-12-18T01:32:48.813Z,0.00
2018-12-18T01:33:48.756Z,0.00
2018-12-18T01:34:48.702Z,0.00
2018-12-18T01:35:48.646Z,0.00
2018-12-18T01:36:48.614Z,0.00
2018-12-18T01:37:48.539Z,0.00
2018-12-18T01:38:48.484Z,0.00
2018-12-18T01:39:48.429Z,0.00
2018-12-18T01:40:48.378Z,0.00
2018-12-18T01:41:48.347Z,0.00
2018-12-18T01:42:48.266Z,0.00
2018-12-18T01:43:48.222Z,0.00
2018-12-18T01:44:48.159Z,0.00
2018-12-18T01:45:48.104Z,0.00
2018-12-18T01:46:48.076Z,0.00
2018-12-18T01:47:47.997Z,0.00
2018-12-18T01:48:47.944Z,0.00
2018-12-18T01:49:47.888Z,0.00
2018-12-18T01:50:47.835Z,0.00
2018-12-18T01:51:47.843Z,0.00
2018-12-18T01:52:47.724Z,0.00
2018-12-18T01:53:47.667Z,0.00
2018-12-18T01:54:47.621Z,0.00
2018-12-18T01:55:47.565Z,0.00
2018-12-18T01:56:47.536Z,0.00
2018-12-18T01:57:47.461Z,0.00
2018-12-18T01:58:47.408Z,0.00
2018-12-18T01:59:47.344Z,0.00
2018-12-18T02:00:47.289Z,0.00
2018-12-18T02:01:47.264Z,0.00
2018-12-18T02:02:47.183Z,0.00
2018-12-18T02:03:47.127Z,0.00
2018-12-18T02:04:47.077Z,0.00
2018-12-18T02:05:47.020Z,0.00
2018-12-18T02:06:46.988Z,0.00
2018-12-18T02:07:46.937Z,0.00
2018-12-18T02:08:46.858Z,0.00
2018-12-18T02:09:46.803Z,0.00
2018-12-18T02:10:46.747Z,0.00
2018-12-18T02:11:46.695Z,0.00
2018-12-18T02:12:46.660Z,0.00
2018-12-18T02:13:46.596Z,0.00
2018-12-18T02:14:46.530Z,0.00
2018-12-18T02:15:46.475Z,0.00
2018-12-18T02:16:46.422Z,0.00
2018-12-18T02:17:46.391Z,0.00
2018-12-18T02:18:46.311Z,0.00
2018-12-18T02:19:46.256Z,0.00
2018-12-18T02:20:46.209Z,0.00
2018-12-18T02:21:46.149Z,0.00
2018-12-18T02:22:46.113Z,0.00
2018-12-18T02:23:46.038Z,0.00
2018-12-18T02:24:45.980Z,0.00
2018-12-18T02:25:45.933Z,0.00
2018-12-18T02:26:45.882Z,0.00
2018-12-18T02:27:45.849Z,0.00
2018-12-18T02:28:45.765Z,0.00
2018-12-18T02:29:45.715Z,0.00
2018-12-18T02:30:45.659Z,0.00
2018-12-18T02:31:45.604Z,0.00
2018-12-18T02:32:45.576Z,0.00
2018-12-18T02:33:45.500Z,0.00
2018-12-18T02:34:45.442Z,0.00
2018-12-18T02:35:45.381Z,0.00
2018-12-18T02:36:45.336Z,0.00
2018-12-18T02:37:45.306Z,0.00
2018-12-18T02:38:45.223Z,0.00
2018-12-18T02:39:45.172Z,0.00
2018-12-18T02:40:45.119Z,0.00
2018-12-18T02:41:45.063Z,0.00
2018-12-18T02:42:45.033Z,0.00
2018-12-18T02:43:44.952Z,0.00
2018-12-18T02:44:44.900Z,0.00
2018-12-18T02:45:44.848Z,0.00
2018-12-18T02:46:44.791Z,0.00
2018-12-18T02:47:44.760Z,0.00
2018-12-18T02:48:44.677Z,0.00
2018-12-18T02:49:44.630Z,0.00
2018-12-18T02:50:44.578Z,0.00
2018-12-18T02:51:44.526Z,0.00
2018-12-18T02:52:44.491Z,0.00
2018-12-18T02:53:44.413Z,0.00
2018-12-18T02:54:44.358Z,0.00
2018-12-18T02:55:44.302Z,0.00
2018-12-18T02:56:44.247Z,0.00
2018-12-18T02:57:44.217Z,0.00
2018-12-18T02:58:44.142Z,0.00
2018-12-18T02:59:44.089Z,0.00
2018-12-18T03:00:44.030Z,0.00
2018-12-18T03:01:43.977Z,0.00
2018-12-18T03:02:43.954Z,0.00
2018-12-18T03:03:43.868Z,0.00
2018-12-18T03:04:43.821Z,0.00
2018-12-18T03:05:43.759Z,0.00
2018-12-18T03:06:43.703Z,0.00
2018-12-18T03:07:43.649Z,0.00
2018-12-18T03:08:43.622Z,0.00
2018-12-18T03:09:43.542Z,0.00
2018-12-18T03:10:43.486Z,0.00
2018-12-18T03:11:43.433Z,0.00
2018-12-18T03:12:43.383Z,0.00
2018-12-18T03:13:43.350Z,0.00
2018-12-18T03:14:43.272Z,0.00
2018-12-18T03:15:43.213Z,0.00
2018-12-18T03:16:43.161Z,0.00
2018-12-18T03:17:43.107Z,0.00
2018-12-18T03:18:43.083Z,0.00
2018-12-18T03:19:42.996Z,0.00
2018-12-18T03:20:42.945Z,0.00
2018-12-18T03:21:42.889Z,0.00
2018-12-18T03:22:42.833Z,0.00
2018-12-18T03:23:42.801Z,0.00
2018-12-18T03:24:42.727Z,0.00
2018-12-18T03:25:42.671Z,0.00
2018-12-18T03:26:42.622Z,0.00
2018-12-18T03:27:42.567Z,0.00
2018-12-18T03:28:42.533Z,0.00
2018-12-18T03:29:42.453Z,0.00
2018-12-18T03:30:42.399Z,0.00
2018-12-18T03:31:42.346Z,0.00
2018-12-18T03:32:42.293Z,0.00
2018-12-18T03:33:42.264Z,0.00
2018-12-18T03:34:42.186Z,0.00
2018-12-18T03:35:42.129Z,0.00
2018-12-18T03:36:42.074Z,0.00
2018-12-18T03:37:42.020Z,0.00
2018-12-18T03:38:41.990Z,0.00
2018-12-18T03:39:41.911Z,0.00
2018-12-18T03:40:41.858Z,0.00
2018-12-18T03:41:41.801Z,0.00
2018-12-18T03:42:41.749Z,0.00
2018-12-18T03:43:41.717Z,0.00
2018-12-18T03:44:41.637Z,0.00
2018-12-18T03:45:41.583Z,0.00
2018-12-18T03:46:41.532Z,0.00
2018-12-18T03:47:41.476Z,0.00
2018-12-18T03:48:41.449Z,0.00
2018-12-18T03:49:41.365Z,0.00
2018-12-18T03:50:41.313Z,0.00
2018-12-18T03:51:41.263Z,0.00
2018-12-18T03:52:41.204Z,0.00
2018-12-18T03:53:41.174Z,0.00
2018-12-18T03:54:41.097Z,0.00
2018-12-18T03:55:41.044Z,0.00
2018-12-18T03:56:40.981Z,0.00
2018-12-18T03:57:40.934Z,0.00
2018-12-18T03:58:40.902Z,0.00
2018-12-18T03:59:40.823Z,0.00
2018-12-18T04:00:40.767Z,0.00
2018-12-18T04:01:40.714Z,0.00
2018-12-18T04:02:40.683Z,0.00
2018-12-18T04:03:40.639Z,0.00
2018-12-18T04:04:40.552Z,0.00
2018-12-18T04:05:40.503Z,0.00
2018-12-18T04:06:40.447Z,0.00
2018-12-18T04:07:40.388Z,0.00
2018-12-18T04:08:40.334Z,0.00
2018-12-18T04:09:40.304Z,0.00
2018-12-18T04:10:40.225Z,0.00
2018-12-18T04:11:40.169Z,0.00
2018-12-18T04:12:40.114Z,0.00
2018-12-18T04:13:40.066Z,0.00
2018-12-18T04:14:40.032Z,0.00
2018-12-18T04:15:39.955Z,0.00
2018-12-18T04:16:39.896Z,0.00
2018-12-18T04:17:39.844Z,0.00
2018-12-18T04:18:39.794Z,0.00
2018-12-18T04:19:39.759Z,0.00
2018-12-18T04:20:39.680Z,0.00
2018-12-18T04:21:39.628Z,0.00
2018-12-18T04:22:39.574Z,0.00
2018-12-18T04:23:39.523Z,0.00
2018-12-18T04:24:39.490Z,0.00
2018-12-18T04:25:39.411Z,0.00
2018-12-18T04:26:39.355Z,0.00
2018-12-18T04:27:39.300Z,0.00
2018-12-18T04:28:39.259Z,0.00
2018-12-18T04:29:39.217Z,0.00
2018-12-18T04:30:39.139Z,0.00
2018-12-18T04:31:39.092Z,0.00
2018-12-18T04:32:39.030Z,0.00
2018-12-18T04:33:38.990Z,0.00
2018-12-18T04:34:42.842Z,0.00
2018-12-18T04:35:38.865Z,0.00
2018-12-18T04:36:38.809Z,0.00
2018-12-18T04:37:38.762Z,0.00
2018-12-18T04:38:38.705Z,0.00
2018-12-18T04:39:38.678Z,0.00
2018-12-18T04:40:38.600Z,0.00
2018-12-18T04:41:38.537Z,0.00
2018-12-18T04:42:38.485Z,0.00
2018-12-18T04:43:38.431Z,0.00
2018-12-18T04:44:38.403Z,0.00
2018-12-18T04:45:38.323Z,0.00
2018-12-18T04:46:38.272Z,0.00
2018-12-18T04:47:38.217Z,0.00
2018-12-18T04:48:38.161Z,0.00
2018-12-18T04:49:38.132Z,0.00
2018-12-18T04:50:38.054Z,0.00
2018-12-18T04:51:37.998Z,0.00
2018-12-18T04:52:37.943Z,0.00
2018-12-18T04:53:37.886Z,0.00
2018-12-18T04:54:37.876Z,0.00
2018-12-18T04:55:37.782Z,0.00
2018-12-18T04:56:37.724Z,0.00
2018-12-18T04:57:37.675Z,0.00
2018-12-18T04:58:37.626Z,0.00
2018-12-18T04:59:37.561Z,0.00
2018-12-18T05:00:37.532Z,0.00
2018-12-18T05:01:37.458Z,0.00
2018-12-18T05:02:37.404Z,0.00
2018-12-18T05:03:37.346Z,0.00
2018-12-18T05:04:37.290Z,0.00
2018-12-18T05:05:37.270Z,0.00
2018-12-18T05:06:37.187Z,0.00
2018-12-18T05:07:37.130Z,0.00
2018-12-18T05:08:37.074Z,0.00
2018-12-18T05:09:37.021Z,0.00
2018-12-18T05:10:37.062Z,0.00
2018-12-18T05:11:36.910Z,0.00
2018-12-18T05:12:36.855Z,0.00
2018-12-18T05:13:36.799Z,0.00
2018-12-18T05:14:36.750Z,0.00
2018-12-18T05:15:36.716Z,0.00
2018-12-18T05:16:36.637Z,0.00
2018-12-18T05:17:36.581Z,0.00
2018-12-18T05:18:36.534Z,0.00
2018-12-18T05:19:36.482Z,0.00
2018-12-18T05:20:36.451Z,0.00
2018-12-18T05:21:36.373Z,0.00
2018-12-18T05:22:36.313Z,0.00
2018-12-18T05:23:36.261Z,0.00
2018-12-18T05:24:36.202Z,0.00
2018-12-18T05:25:36.176Z,0.00
2018-12-18T05:26:36.095Z,0.00
2018-12-18T05:27:36.041Z,0.00
2018-12-18T05:28:35.985Z,0.00
2018-12-18T05:29:35.926Z,0.00
2018-12-18T05:30:35.903Z,0.00
2018-12-18T05:31:35.825Z,0.00
2018-12-18T05:32:35.769Z,0.00
2018-12-18T05:33:35.716Z,0.00
2018-12-18T05:34:35.662Z,0.00
2018-12-18T05:35:35.628Z,0.00
2018-12-18T05:36:35.549Z,0.00
2018-12-18T05:37:35.494Z,0.00
2018-12-18T05:38:35.438Z,0.00
2018-12-18T05:39:35.390Z,0.00
2018-12-18T05:40:35.356Z,0.00
2018-12-18T05:41:35.276Z,0.00
2018-12-18T05:42:35.225Z,0.00
2018-12-18T05:43:35.172Z,0.00
2018-12-18T05:44:35.110Z,0.00
2018-12-18T05:45:35.079Z,0.00
2018-12-18T05:46:35.003Z,0.00
2018-12-18T05:47:34.947Z,0.00
2018-12-18T05:48:34.892Z,0.00
2018-12-18T05:49:34.845Z,0.00
2018-12-18T05:50:34.813Z,0.00
2018-12-18T05:51:34.733Z,0.00
2018-12-18T05:52:34.676Z,0.00
2018-12-18T05:53:34.615Z,0.00
2018-12-18T05:54:34.568Z,0.00
2018-12-18T05:55:34.549Z,0.00
2018-12-18T05:56:34.456Z,0.00
2018-12-18T05:57:34.403Z,0.00
2018-12-18T05:58:34.346Z,0.00
2018-12-18T05:59:34.297Z,0.00
2018-12-18T06:00:34.231Z,0.00
2018-12-18T06:01:34.203Z,0.00
2018-12-18T06:02:34.129Z,0.00
2018-12-18T06:03:34.077Z,0.00
2018-12-18T06:04:34.019Z,0.00
2018-12-18T06:05:33.962Z,0.00
2018-12-18T06:06:33.932Z,0.00
2018-12-18T06:07:33.852Z,0.00
2018-12-18T06:08:33.796Z,0.00
2018-12-18T06:09:33.747Z,0.00
2018-12-18T06:10:33.690Z,0.00
2018-12-18T06:11:33.671Z,0.00
2018-12-18T06:12:33.579Z,0.00
2018-12-18T06:13:33.528Z,0.00
2018-12-18T06:14:33.463Z,0.00
2018-12-18T06:15:33.413Z,0.00
2018-12-18T06:16:33.387Z,0.00
2018-12-18T06:17:33.302Z,0.00
2018-12-18T06:18:33.264Z,0.00
2018-12-18T06:19:33.199Z,0.00
2018-12-18T06:20:33.141Z,0.00
2018-12-18T06:21:33.117Z,0.00
2018-12-18T06:22:33.033Z,0.00
2018-12-18T06:23:32.973Z,0.00
2018-12-18T06:24:32.925Z,0.00
2018-12-18T06:25:32.863Z,0.00
2018-12-18T06:26:32.835Z,0.00
2018-12-18T06:27:32.751Z,0.00
2018-12-18T06:28:32.700Z,0.00
2018-12-18T06:29:32.645Z,0.00
2018-12-18T06:30:32.589Z,0.00
2018-12-18T06:31:32.565Z,0.00
2018-12-18T06:32:32.483Z,0.00
2018-12-18T06:33:32.431Z,0.00
2018-12-18T06:34:32.368Z,0.00
2018-12-18T06:35:32.321Z,0.00
2018-12-18T06:36:32.289Z,0.00
2018-12-18T06:37:32.210Z,0.00
2018-12-18T06:38:32.150Z,0.00
2018-12-18T06:39:32.095Z,0.00
2018-12-18T06:40:32.039Z,0.00
2018-12-18T06:41:32.015Z,0.00
2018-12-18T06:42:31.933Z,0.00
2018-12-18T06:43:31.889Z,0.00
2018-12-18T06:44:31.822Z,0.00
2018-12-18T06:45:31.766Z,0.00
2018-12-18T06:46:31.739Z,0.00
2018-12-18T06:47:31.656Z,0.00
2018-12-18T06:48:31.600Z,0.00
2018-12-18T06:49:31.553Z,0.00
2018-12-18T06:50:31.497Z,0.00
2018-12-18T06:51:31.463Z,0.00
2018-12-18T06:52:31.382Z,0.00
2018-12-18T06:53:31.327Z,0.00
2018-12-18T06:54:31.272Z,0.00
2018-12-18T06:55:31.220Z,0.00
2018-12-18T06:56:31.186Z,0.00
2018-12-18T06:57:31.107Z,0.00
2018-12-18T06:58:31.051Z,0.00
2018-12-18T06:59:30.998Z,0.00
2018-12-18T07:00:30.946Z,0.00
2018-12-18T07:01:30.944Z,0.00
2018-12-18T07:02:30.832Z,0.00
2018-12-18T07:03:30.777Z,4.00
2018-12-18T07:04:30.721Z,0.00
2018-12-18T07:05:30.674Z,0.00
2018-12-18T07:06:30.615Z,4.00
2018-12-18T07:07:30.583Z,4.00
2018-12-18T07:08:30.510Z,4.00
2018-12-18T07:09:30.448Z,4.00
2018-12-18T07:10:30.393Z,4.00
2018-12-18T07:11:30.338Z,4.00
2018-12-18T07:12:30.310Z,8.00
2018-12-18T07:13:30.234Z,8.00
2018-12-18T07:14:30.176Z,8.00
2018-12-18T07:15:30.124Z,12.00
2018-12-18T07:16:30.065Z,12.00
2018-12-18T07:17:30.037Z,12.00
2018-12-18T07:18:29.959Z,16.00
2018-12-18T07:19:29.903Z,16.00
2018-12-18T07:20:29.851Z,16.00
2018-12-18T07:21:29.796Z,20.00
2018-12-18T07:22:29.768Z,20.00
2018-12-18T07:23:29.686Z,24.00
2018-12-18T07:24:29.629Z,28.00
2018-12-18T07:25:29.575Z,28.00
2018-12-18T07:26:29.519Z,28.00
2018-12-18T07:27:29.487Z,36.00
2018-12-18T07:28:29.408Z,36.00
2018-12-18T07:29:29.354Z,44.00
2018-12-18T07:30:29.303Z,44.00
2018-12-18T07:31:29.246Z,48.00
2018-12-18T07:32:29.220Z,56.00
2018-12-18T07:33:29.137Z,60.00
2018-12-18T07:34:33.367Z,68.00
2018-12-18T07:35:29.024Z,68.00
2018-12-18T07:36:28.969Z,80.00
2018-12-18T07:37:28.939Z,84.00
2018-12-18T07:38:28.862Z,88.00
2018-12-18T07:39:28.802Z,100.00
2018-12-18T07:40:28.751Z,108.00
2018-12-18T07:41:28.697Z,112.00
2018-12-18T07:42:28.667Z,116.00
2018-12-18T07:43:28.597Z,120.00
2018-12-18T07:44:28.537Z,132.00
2018-12-18T07:45:28.478Z,140.00
2018-12-18T07:46:28.425Z,152.00
2018-12-18T07:47:28.391Z,168.00
2018-12-18T07:48:28.312Z,180.00
2018-12-18T07:49:28.256Z,172.00
2018-12-18T07:50:28.202Z,176.00
2018-12-18T07:51:28.146Z,188.00
2018-12-18T07:52:28.117Z,216.00
2018-12-18T07:53:28.039Z,220.00
2018-12-18T07:54:27.980Z,236.00
2018-12-18T07:55:27.928Z,248.00
2018-12-18T07:56:27.873Z,252.00
2018-12-18T07:57:27.842Z,264.00
2018-12-18T07:58:27.762Z,280.00
2018-12-18T07:59:27.702Z,304.00
2018-12-18T08:00:27.652Z,312.00
2018-12-18T08:01:27.600Z,340.00
2018-12-18T08:02:27.564Z,344.00
2018-12-18T08:03:27.494Z,364.00
2018-12-18T08:04:27.435Z,360.00
2018-12-18T08:05:30.033Z,360.00
2018-12-18T08:06:27.477Z,368.00
2018-12-18T08:07:27.309Z,420.00
2018-12-18T08:08:27.213Z,404.00
2018-12-18T08:09:27.160Z,436.00
2018-12-18T08:10:27.106Z,508.00
2018-12-18T08:11:27.050Z,500.00
2018-12-18T08:12:26.995Z,516.00
2018-12-18T08:13:26.965Z,572.00
2018-12-18T08:14:26.875Z,636.00
2018-12-18T08:15:26.832Z,644.00
2018-12-18T08:16:26.769Z,672.00
2018-12-18T08:17:26.714Z,728.00
2018-12-18T08:18:26.689Z,748.00
2018-12-18T08:19:26.603Z,700.00
2018-12-18T08:20:26.558Z,812.00
2018-12-18T08:21:26.504Z,720.00
2018-12-18T08:22:26.451Z,712.00
2018-12-18T08:23:26.452Z,688.00
2018-12-18T08:24:26.337Z,720.00
2018-12-18T08:25:26.289Z,828.00
2018-12-18T08:26:26.231Z,764.00
2018-12-18T08:27:26.179Z,764.00
2018-12-18T08:28:26.144Z,808.00
2018-12-18T08:29:26.067Z,804.00
2018-12-18T08:30:26.021Z,848.00
2018-12-18T08:31:25.959Z,844.00
2018-12-18T08:32:25.900Z,788.00
2018-12-18T08:33:25.876Z,856.00
2018-12-18T08:34:25.800Z,884.00
2018-12-18T08:35:25.747Z,864.00
2018-12-18T08:36:25.681Z,944.00
2018-12-18T08:37:25.619Z,976.00
2018-12-18T08:38:25.587Z,1140.00
2018-12-18T08:39:25.517Z,1260.00
2018-12-18T08:40:25.463Z,1232.00
2018-12-18T08:41:25.411Z,1152.00
2018-12-18T08:42:25.360Z,1200.00
2018-12-18T08:43:25.321Z,1284.00
2018-12-18T08:44:25.334Z,1272.00
2018-12-18T08:45:25.194Z,1252.00
2018-12-18T08:46:25.131Z,1340.00
2018-12-18T08:47:25.083Z,1336.00
2018-12-18T08:48:25.052Z,1304.00
2018-12-18T08:49:24.999Z,1300.00
2018-12-18T08:50:24.922Z,1352.00
2018-12-18T08:51:24.863Z,1324.00
2018-12-18T08:52:24.810Z,1228.00
2018-12-18T08:53:24.782Z,1192.00
2018-12-18T08:54:24.697Z,1172.00
2018-12-18T08:55:24.644Z,1212.00
2018-12-18T08:56:24.604Z,1328.00
2018-12-18T08:57:24.534Z,1300.00
2018-12-18T08:58:24.506Z,1312.00
2018-12-18T08:59:24.426Z,1416.00
2018-12-18T09:00:24.379Z,1492.00
2018-12-18T09:01:24.319Z,1448.00
2018-12-18T09:02:24.267Z,1488.00
2018-12-18T09:03:24.241Z,1528.00
2018-12-18T09:04:24.152Z,1504.00
2018-12-18T09:05:24.108Z,1488.00
2018-12-18T09:06:24.039Z,1428.00
2018-12-18T09:07:23.991Z,1492.00
2018-12-18T09:08:23.975Z,1544.00
2018-12-18T09:09:23.883Z,1576.00
2018-12-18T09:10:23.828Z,1520.00
2018-12-18T09:11:23.774Z,1640.00
2018-12-18T09:12:23.729Z,1704.00
2018-12-18T09:13:23.666Z,1660.00
2018-12-18T09:14:23.638Z,1704.00
2018-12-18T09:15:23.550Z,1704.00
2018-12-18T09:16:23.503Z,1640.00
2018-12-18T09:17:23.443Z,1764.00
2018-12-18T09:18:23.393Z,1864.00
2018-12-18T09:19:23.361Z,1792.00
2018-12-18T09:20:23.287Z,1660.00
2018-12-18T09:21:23.232Z,1652.00
2018-12-18T09:22:23.175Z,1552.00
2018-12-18T09:23:23.123Z,1544.00
2018-12-18T09:24:23.123Z,1548.00
2018-12-18T09:25:23.014Z,1628.00
2018-12-18T09:26:22.964Z,1604.00
2018-12-18T09:27:22.902Z,1572.00
2018-12-18T09:28:22.851Z,1348.00
2018-12-18T09:29:22.819Z,1380.00
2018-12-18T09:30:22.740Z,1308.00
2018-12-18T09:31:22.689Z,1308.00
2018-12-18T09:32:22.633Z,1360.00
2018-12-18T09:33:22.578Z,1484.00
2018-12-18T09:34:22.552Z,1672.00
2018-12-18T09:35:22.466Z,1692.00
2018-12-18T09:36:22.415Z,2044.00
2018-12-18T09:37:22.365Z,2112.00
2018-12-18T09:38:22.312Z,2352.00
2018-12-18T09:39:22.278Z,2508.00
2018-12-18T09:40:22.199Z,2428.00
2018-12-18T09:41:22.143Z,2456.00
2018-12-18T09:42:22.092Z,2424.00
2018-12-18T09:43:22.035Z,2368.00
2018-12-18T09:44:21.999Z,2324.00
2018-12-18T09:45:21.930Z,2204.00
2018-12-18T09:46:21.874Z,2016.00
2018-12-18T09:47:21.817Z,1968.00
2018-12-18T09:48:21.763Z,2124.00
2018-12-18T09:49:21.735Z,2324.00
2018-12-18T09:50:21.662Z,2312.00
2018-12-18T09:51:21.592Z,2244.00
2018-12-18T09:52:21.543Z,2244.00
2018-12-18T09:53:21.501Z,2232.00
2018-12-18T09:54:21.471Z,2156.00
2018-12-18T09:55:21.387Z,2044.00
2018-12-18T09:56:21.336Z,1868.00
2018-12-18T09:57:21.279Z,1752.00
2018-12-18T09:58:21.229Z,1556.00
2018-12-18T09:59:21.189Z,1428.00
2018-12-18T10:00:21.109Z,1348.00
2018-12-18T10:01:21.066Z,1328.00
2018-12-18T10:02:21.011Z,1364.00
2018-12-18T10:03:20.953Z,1344.00
2018-12-18T10:04:20.929Z,1352.00
2018-12-18T10:05:20.845Z,1372.00
2018-12-18T10:06:20.792Z,1468.00
2018-12-18T10:07:20.736Z,1420.00
2018-12-18T10:08:20.682Z,1436.00
2018-12-18T10:09:20.654Z,1468.00
2018-12-18T10:10:20.571Z,1492.00
2018-12-18T10:11:20.519Z,1492.00
2018-12-18T10:12:20.468Z,1492.00
2018-12-18T10:13:20.413Z,1536.00
2018-12-18T10:14:20.389Z,1528.00
2018-12-18T10:15:20.331Z,1536.00
2018-12-18T10:16:20.247Z,1548.00
2018-12-18T10:17:20.193Z,1516.00
2018-12-18T10:18:20.144Z,1516.00
2018-12-18T10:19:20.088Z,1584.00
2018-12-18T10:20:20.057Z,1588.00
2018-12-18T10:21:19.978Z,1532.00
2018-12-18T10:22:19.926Z,1472.00
2018-12-18T10:23:19.863Z,1432.00
2018-12-18T10:24:19.812Z,1488.00
2018-12-18T10:25:19.789Z,1532.00
2018-12-18T10:26:19.711Z,1568.00
2018-12-18T10:27:19.653Z,1584.00
2018-12-18T10:28:19.598Z,1568.00
2018-12-18T10:29:19.547Z,1640.00
2018-12-18T10:30:19.515Z,1768.00
2018-12-18T10:31:19.437Z,1784.00
2018-12-18T10:32:19.385Z,1684.00
2018-12-18T10:33:19.338Z,1648.00
2018-12-18T10:34:19.278Z,1656.00
2018-12-18T10:35:19.242Z,1628.00
2018-12-18T10:36:19.167Z,1744.00
2018-12-18T10:37:19.112Z,2000.00
2018-12-18T10:38:19.060Z,2168.00
2018-12-18T10:39:19.005Z,2148.00
2018-12-18T10:40:18.973Z,2068.00
2018-12-18T10:41:18.903Z,1988.00
2018-12-18T10:42:18.840Z,1808.00
2018-12-18T10:43:18.787Z,1724.00
2018-12-18T10:44:18.735Z,1688.00
2018-12-18T10:45:18.712Z,1628.00
2018-12-18T10:46:18.624Z,1600.00
2018-12-18T10:47:18.569Z,1552.00
2018-12-18T10:48:18.514Z,1548.00
2018-12-18T10:49:18.464Z,1536.00
2018-12-18T10:50:18.431Z,1500.00
2018-12-18T10:51:18.351Z,1528.00
2018-12-18T10:52:18.301Z,1600.00
2018-12-18T10:53:18.244Z,1624.00
2018-12-18T10:54:18.193Z,1640.00
2018-12-18T10:55:18.164Z,1672.00
2018-12-18T10:56:18.077Z,1724.00
2018-12-18T10:57:18.032Z,1652.00
2018-12-18T10:58:23.833Z,1624.00
2018-12-18T10:59:17.921Z,1628.00
2018-12-18T11:00:17.897Z,1616.00
2018-12-18T11:01:17.816Z,1588.00
2018-12-18T11:02:17.763Z,1508.00
2018-12-18T11:03:17.707Z,1488.00
2018-12-18T11:04:17.651Z,1488.00
2018-12-18T11:05:17.624Z,1472.00
2018-12-18T11:06:17.545Z,1456.00
2018-12-18T11:07:17.493Z,1464.00
2018-12-18T11:08:17.439Z,1464.00
2018-12-18T11:09:17.386Z,1476.00
2018-12-18T11:10:17.362Z,1464.00
2018-12-18T11:11:17.278Z,1456.00
2018-12-18T11:12:17.231Z,1444.00
2018-12-18T11:13:17.169Z,1432.00
2018-12-18T11:14:17.121Z,1392.00
2018-12-18T11:15:17.099Z,1372.00
2018-12-18T11:16:17.007Z,1368.00
2018-12-18T11:17:16.955Z,1364.00
2018-12-18T11:18:16.907Z,1356.00
2018-12-18T11:19:16.849Z,1352.00
2018-12-18T11:20:16.793Z,1352.00
2018-12-18T11:21:16.767Z,1340.00
2018-12-18T11:22:16.682Z,1336.00
2018-12-18T11:23:16.634Z,1328.00
2018-12-18T11:24:16.582Z,1312.00
2018-12-18T11:25:16.524Z,1312.00
2018-12-18T11:26:16.500Z,1280.00
2018-12-18T11:27:16.420Z,1276.00
2018-12-18T11:28:16.374Z,1280.00
2018-12-18T11:29:16.311Z,1284.00
2018-12-18T11:30:16.256Z,1284.00
2018-12-18T11:31:16.228Z,1288.00
2018-12-18T11:32:16.152Z,1292.00
2018-12-18T11:33:16.104Z,1292.00
2018-12-18T11:34:16.039Z,1292.00
2018-12-18T11:35:15.988Z,1300.00
2018-12-18T11:36:16.639Z,1284.00
2018-12-18T11:37:15.881Z,1280.00
2018-12-18T11:38:15.826Z,1272.00
2018-12-18T11:39:15.769Z,1272.00
2018-12-18T11:40:15.713Z,1276.00
2018-12-18T11:41:15.685Z,1276.00
2018-12-18T11:42:15.614Z,1272.00
2018-12-18T11:43:15.556Z,1272.00
2018-12-18T11:44:15.500Z,1268.00
2018-12-18T11:45:15.452Z,1260.00
2018-12-18T11:46:15.423Z,1248.00
2018-12-18T11:47:15.339Z,1248.00
2018-12-18T11:48:15.288Z,1256.00
2018-12-18T11:49:15.234Z,1256.00
2018-12-18T11:50:15.179Z,1260.00
2018-12-18T11:51:15.151Z,1252.00
2018-12-18T11:52:15.068Z,1252.00
2018-12-18T11:53:15.025Z,1256.00
2018-12-18T11:54:14.967Z,1248.00
2018-12-18T11:55:14.907Z,1248.00
2018-12-18T11:56:14.886Z,1244.00
2018-12-18T11:57:14.801Z,1240.00
2018-12-18T11:58:14.743Z,1228.00
2018-12-18T11:59:15.383Z,1228.00
2018-12-18T12:00:14.636Z,1220.00
2018-12-18T12:01:14.615Z,1220.00
2018-12-18T12:02:14.530Z,1216.00
2018-12-18T12:03:14.479Z,1220.00
2018-12-18T12:04:14.424Z,1220.00
2018-12-18T12:05:14.373Z,1224.00
2018-12-18T12:06:14.341Z,1220.00
2018-12-18T12:07:14.261Z,1220.00
2018-12-18T12:08:14.210Z,1212.00
2018-12-18T12:09:14.150Z,1204.00
2018-12-18T12:10:14.116Z,1180.00
2018-12-18T12:11:14.071Z,1156.00
2018-12-18T12:12:14.000Z,1144.00
2018-12-18T12:13:13.936Z,1132.00
2018-12-18T12:14:13.888Z,1140.00
2018-12-18T12:15:13.830Z,1152.00
2018-12-18T12:16:13.803Z,1156.00
2018-12-18T12:17:13.720Z,1148.00
2018-12-18T12:18:13.667Z,1148.00
2018-12-18T12:19:13.619Z,1152.00
2018-12-18T12:20:13.564Z,1172.00
2018-12-18T12:21:13.552Z,1212.00
2018-12-18T12:22:13.453Z,1248.00
2018-12-18T12:23:13.399Z,1284.00
2018-12-18T12:24:13.345Z,1296.00
2018-12-18T12:25:13.294Z,1316.00
2018-12-18T12:26:13.237Z,1344.00
2018-12-18T12:27:13.209Z,1380.00
2018-12-18T12:28:13.129Z,1440.00
2018-12-18T12:29:13.075Z,1472.00
2018-12-18T12:30:13.022Z,1528.00
2018-12-18T12:31:12.962Z,1564.00
2018-12-18T12:32:12.955Z,1584.00
2018-12-18T12:33:12.860Z,1600.00
2018-12-18T12:34:12.806Z,1616.00
2018-12-18T12:35:12.755Z,1648.00
2018-12-18T12:36:12.699Z,1656.00
2018-12-18T12:37:12.674Z,1684.00
2018-12-18T12:38:12.590Z,1712.00
2018-12-18T12:39:12.536Z,1724.00
2018-12-18T12:40:12.479Z,1732.00
2018-12-18T12:41:12.429Z,1724.00
2018-12-18T12:42:12.404Z,1692.00
2018-12-18T12:43:12.323Z,1652.00
2018-12-18T12:44:12.255Z,1632.00
2018-12-18T12:45:12.215Z,1628.00
2018-12-18T12:46:12.159Z,1628.00
2018-12-18T12:47:12.129Z,1624.00
2018-12-18T12:48:12.054Z,1632.00